sensor_id;sensor_type;location;lat;lon;timestamp;temperature;humidity
21759;DHT22;11041;50.854;20.580;2023-01-26T00:01:23;2.10;99.90
21759;DHT22;11041;50.854;20.580;2023-01-26T00:03:55;2.10;99.90
21759;DHT22;11041;50.854;20.580;2023-01-26T00:06:23;2.10;99.90
21759;DHT22;11041;50.854;20.580;2023-01-26T00:08:52;2.10;99.90
21759;DHT22;11041;50.854;20.580;2023-01-26T00:11:22;2.10;99.90
21759;DHT22;11041;50.854;20.580;2023-01-26T00:13:52;2.10;99.90
21759;DHT22;11041;50.854;20.580;2023-01-26T00:16:19;2.00;99.90
21759;DHT22;11041;50.854;20.580;2023-01-26T00:18:46;2.00;99.90
21759;DHT22;11041;50.854;20.580;2023-01-26T00:21:15;2.00;99.90
21759;DHT22;11041;50.854;20.580;2023-01-26T00:23:44;2.00;99.90
21759;DHT22;11041;50.854;20.580;2023-01-26T00:26:20;2.00;99.90
21759;DHT22;11041;50.854;20.580;2023-01-26T00:28:50;2.00;99.90
21759;DHT22;11041;50.854;20.580;2023-01-26T00:31:23;1.90;99.90
21759;DHT22;11041;50.854;20.580;2023-01-26T00:33:52;2.00;99.90
21759;DHT22;11041;50.854;20.580;2023-01-26T00:36:20;1.90;99.90
21759;DHT22;11041;50.854;20.580;2023-01-26T00:38:48;1.90;99.90
21759;DHT22;11041;50.854;20.580;2023-01-26T00:41:14;1.90;99.90
21759;DHT22;11041;50.854;20.580;2023-01-26T00:44:01;1.90;99.90
21759;DHT22;11041;50.854;20.580;2023-01-26T00:46:28;1.90;99.90
21759;DHT22;11041;50.854;20.580;2023-01-26T00:48:54;1.90;99.90
21759;DHT22;11041;50.854;20.580;2023-01-26T00:51:21;1.80;99.90
21759;DHT22;11041;50.854;20.580;2023-01-26T00:53:47;1.80;99.90
21759;DHT22;11041;50.854;20.580;2023-01-26T00:56:14;1.70;99.90
21759;DHT22;11041;50.854;20.580;2023-01-26T00:58:41;1.70;99.90
21759;DHT22;11041;50.854;20.580;2023-01-26T01:01:08;1.70;99.90
21759;DHT22;11041;50.854;20.580;2023-01-26T01:03:34;1.60;99.90
21759;DHT22;11041;50.854;20.580;2023-01-26T01:06:01;1.60;99.90
21759;DHT22;11041;50.854;20.580;2023-01-26T01:08:27;1.60;99.90
21759;DHT22;11041;50.854;20.580;2023-01-26T01:11:09;1.60;99.90
21759;DHT22;11041;50.854;20.580;2023-01-26T01:13:37;1.70;99.90
21759;DHT22;11041;50.854;20.580;2023-01-26T01:16:10;1.70;99.90
21759;DHT22;11041;50.854;20.580;2023-01-26T01:18:38;1.60;99.90
21759;DHT22;11041;50.854;20.580;2023-01-26T01:21:14;1.60;99.90
21759;DHT22;11041;50.854;20.580;2023-01-26T01:23:42;1.60;99.90
21759;DHT22;11041;50.854;20.580;2023-01-26T01:26:09;1.40;99.90
21759;DHT22;11041;50.854;20.580;2023-01-26T01:28:37;1.50;99.90
21759;DHT22;11041;50.854;20.580;2023-01-26T01:31:07;1.50;99.90
21759;DHT22;11041;50.854;20.580;2023-01-26T01:33:36;1.60;99.90
21759;DHT22;11041;50.854;20.580;2023-01-26T01:36:06;1.60;99.90
21759;DHT22;11041;50.854;20.580;2023-01-26T01:38:35;1.60;99.90
21759;DHT22;11041;50.854;20.580;2023-01-26T01:41:02;1.60;99.90
21759;DHT22;11041;50.854;20.580;2023-01-26T01:43:30;1.60;99.90
21759;DHT22;11041;50.854;20.580;2023-01-26T01:46:00;1.60;99.90
21759;DHT22;11041;50.854;20.580;2023-01-26T01:48:51;1.60;99.90
21759;DHT22;11041;50.854;20.580;2023-01-26T01:51:34;1.60;99.90
21759;DHT22;11041;50.854;20.580;2023-01-26T01:54:08;1.60;99.90
21759;DHT22;11041;50.854;20.580;2023-01-26T01:56:41;1.60;99.90
21759;DHT22;11041;50.854;20.580;2023-01-26T01:59:13;1.50;99.90
21759;DHT22;11041;50.854;20.580;2023-01-26T02:01:40;1.60;99.90
21759;DHT22;11041;50.854;20.580;2023-01-26T02:04:08;1.50;99.90
21759;DHT22;11041;50.854;20.580;2023-01-26T02:06:52;1.40;99.90
21759;DHT22;11041;50.854;20.580;2023-01-26T02:09:30;1.40;99.90
21759;DHT22;11041;50.854;20.580;2023-01-26T02:12:22;1.20;99.90
21759;DHT22;11041;50.854;20.580;2023-01-26T02:14:54;1.10;99.90
21759;DHT22;11041;50.854;20.580;2023-01-26T02:17:23;1.00;99.90
21759;DHT22;11041;50.854;20.580;2023-01-26T02:26:41;1.00;99.90
21759;DHT22;11041;50.854;20.580;2023-01-26T02:29:10;1.00;99.90
21759;DHT22;11041;50.854;20.580;2023-01-26T02:31:37;1.10;99.90
21759;DHT22;11041;50.854;20.580;2023-01-26T02:34:06;0.90;99.90
21759;DHT22;11041;50.854;20.580;2023-01-26T02:36:33;0.90;99.90
21759;DHT22;11041;50.854;20.580;2023-01-26T02:39:23;0.80;99.90
21759;DHT22;11041;50.854;20.580;2023-01-26T02:42:09;0.90;99.90
21759;DHT22;11041;50.854;20.580;2023-01-26T02:44:54;1.00;99.90
21759;DHT22;11041;50.854;20.580;2023-01-26T02:47:21;1.00;99.90
21759;DHT22;11041;50.854;20.580;2023-01-26T02:49:47;1.10;99.90
21759;DHT22;11041;50.854;20.580;2023-01-26T02:52:24;1.20;99.90
21759;DHT22;11041;50.854;20.580;2023-01-26T02:54:53;1.10;99.90
21759;DHT22;11041;50.854;20.580;2023-01-26T02:57:38;1.20;99.90
21759;DHT22;11041;50.854;20.580;2023-01-26T03:00:09;1.20;99.90
21759;DHT22;11041;50.854;20.580;2023-01-26T03:02:50;1.20;99.90
21759;DHT22;11041;50.854;20.580;2023-01-26T03:05:19;1.30;99.90
21759;DHT22;11041;50.854;20.580;2023-01-26T03:07:45;1.30;99.90
21759;DHT22;11041;50.854;20.580;2023-01-26T03:10:13;1.30;99.90
21759;DHT22;11041;50.854;20.580;2023-01-26T03:12:44;1.30;99.90
21759;DHT22;11041;50.854;20.580;2023-01-26T03:15:11;1.30;99.90
21759;DHT22;11041;50.854;20.580;2023-01-26T03:18:14;1.30;99.90
21759;DHT22;11041;50.854;20.580;2023-01-26T03:21:02;1.30;99.90
21759;DHT22;11041;50.854;20.580;2023-01-26T03:23:48;1.30;99.90
21759;DHT22;11041;50.854;20.580;2023-01-26T03:26:34;1.30;99.90
21759;DHT22;11041;50.854;20.580;2023-01-26T03:29:22;1.30;99.90
21759;DHT22;11041;50.854;20.580;2023-01-26T03:31:52;1.30;99.90
21759;DHT22;11041;50.854;20.580;2023-01-26T03:34:19;1.20;99.90
21759;DHT22;11041;50.854;20.580;2023-01-26T03:36:47;1.20;99.90
21759;DHT22;11041;50.854;20.580;2023-01-26T03:39:14;1.20;99.90
21759;DHT22;11041;50.854;20.580;2023-01-26T03:41:59;1.20;99.90
21759;DHT22;11041;50.854;20.580;2023-01-26T03:44:47;1.20;99.90
21759;DHT22;11041;50.854;20.580;2023-01-26T03:47:34;0.90;99.90
21759;DHT22;11041;50.854;20.580;2023-01-26T03:50:20;1.00;99.90
21759;DHT22;11041;50.854;20.580;2023-01-26T03:53:16;1.00;99.90
21759;DHT22;11041;50.854;20.580;2023-01-26T03:56:04;1.00;99.90
21759;DHT22;11041;50.854;20.580;2023-01-26T03:58:52;1.00;99.90
21759;DHT22;11041;50.854;20.580;2023-01-26T04:01:23;1.10;99.90
21759;DHT22;11041;50.854;20.580;2023-01-26T04:03:55;1.10;99.90
21759;DHT22;11041;50.854;20.580;2023-01-26T04:06:44;1.20;99.90
21759;DHT22;11041;50.854;20.580;2023-01-26T04:09:31;1.20;99.90
21759;DHT22;11041;50.854;20.580;2023-01-26T04:11:59;1.10;99.90
21759;DHT22;11041;50.854;20.580;2023-01-26T04:14:26;1.10;99.90
21759;DHT22;11041;50.854;20.580;2023-01-26T04:17:11;1.10;99.90
21759;DHT22;11041;50.854;20.580;2023-01-26T04:19:56;1.10;99.90
21759;DHT22;11041;50.854;20.580;2023-01-26T04:22:41;1.20;99.90
21759;DHT22;11041;50.854;20.580;2023-01-26T04:25:17;1.20;99.90
21759;DHT22;11041;50.854;20.580;2023-01-26T04:27:45;1.10;99.90
21759;DHT22;11041;50.854;20.580;2023-01-26T04:30:14;1.20;99.90
21759;DHT22;11041;50.854;20.580;2023-01-26T04:32:42;1.20;99.90
21759;DHT22;11041;50.854;20.580;2023-01-26T04:35:11;1.20;99.90
21759;DHT22;11041;50.854;20.580;2023-01-26T04:37:38;1.10;99.90
21759;DHT22;11041;50.854;20.580;2023-01-26T04:40:06;0.90;99.90
21759;DHT22;11041;50.854;20.580;2023-01-26T04:42:33;0.90;99.90
21759;DHT22;11041;50.854;20.580;2023-01-26T04:45:00;0.90;99.90
21759;DHT22;11041;50.854;20.580;2023-01-26T04:47:26;0.80;99.90
21759;DHT22;11041;50.854;20.580;2023-01-26T04:49:53;0.90;99.90
21759;DHT22;11041;50.854;20.580;2023-01-26T04:52:19;0.80;99.90
21759;DHT22;11041;50.854;20.580;2023-01-26T04:54:46;0.90;99.90
21759;DHT22;11041;50.854;20.580;2023-01-26T04:57:12;0.90;99.90
21759;DHT22;11041;50.854;20.580;2023-01-26T04:59:39;0.90;99.90
21759;DHT22;11041;50.854;20.580;2023-01-26T05:02:05;0.90;99.90
21759;DHT22;11041;50.854;20.580;2023-01-26T05:04:32;0.90;99.90
21759;DHT22;11041;50.854;20.580;2023-01-26T05:06:59;0.80;99.90
21759;DHT22;11041;50.854;20.580;2023-01-26T05:09:25;0.60;99.90
21759;DHT22;11041;50.854;20.580;2023-01-26T05:11:52;0.70;99.90
21759;DHT22;11041;50.854;20.580;2023-01-26T05:14:18;0.80;99.90
21759;DHT22;11041;50.854;20.580;2023-01-26T05:16:44;0.80;99.90
21759;DHT22;11041;50.854;20.580;2023-01-26T05:19:11;0.80;99.90
21759;DHT22;11041;50.854;20.580;2023-01-26T05:21:37;0.80;99.90
21759;DHT22;11041;50.854;20.580;2023-01-26T05:24:04;0.70;99.90
21759;DHT22;11041;50.854;20.580;2023-01-26T05:26:31;0.80;99.90
21759;DHT22;11041;50.854;20.580;2023-01-26T05:28:57;0.80;99.90
21759;DHT22;11041;50.854;20.580;2023-01-26T05:31:24;0.90;99.90
21759;DHT22;11041;50.854;20.580;2023-01-26T05:33:50;0.90;99.90
21759;DHT22;11041;50.854;20.580;2023-01-26T05:36:17;0.90;99.90
21759;DHT22;11041;50.854;20.580;2023-01-26T05:38:43;0.90;99.90
21759;DHT22;11041;50.854;20.580;2023-01-26T05:41:10;0.90;99.90
21759;DHT22;11041;50.854;20.580;2023-01-26T05:43:36;0.90;99.90
21759;DHT22;11041;50.854;20.580;2023-01-26T05:46:03;0.80;99.90
21759;DHT22;11041;50.854;20.580;2023-01-26T05:48:29;0.70;99.90
21759;DHT22;11041;50.854;20.580;2023-01-26T05:50:56;0.80;99.90
21759;DHT22;11041;50.854;20.580;2023-01-26T05:53:23;0.80;99.90
21759;DHT22;11041;50.854;20.580;2023-01-26T05:55:50;0.80;99.90
21759;DHT22;11041;50.854;20.580;2023-01-26T05:58:17;0.80;99.90
21759;DHT22;11041;50.854;20.580;2023-01-26T06:00:43;0.80;99.90
21759;DHT22;11041;50.854;20.580;2023-01-26T06:03:10;0.70;99.90
21759;DHT22;11041;50.854;20.580;2023-01-26T06:05:36;0.50;99.90
21759;DHT22;11041;50.854;20.580;2023-01-26T06:08:04;0.60;99.90
21759;DHT22;11041;50.854;20.580;2023-01-26T06:10:30;0.60;99.90
21759;DHT22;11041;50.854;20.580;2023-01-26T06:12:58;0.70;99.90
21759;DHT22;11041;50.854;20.580;2023-01-26T06:15:25;0.50;99.90
21759;DHT22;11041;50.854;20.580;2023-01-26T06:17:52;0.50;99.90
21759;DHT22;11041;50.854;20.580;2023-01-26T06:20:18;0.50;99.90
21759;DHT22;11041;50.854;20.580;2023-01-26T06:22:44;0.60;99.90
21759;DHT22;11041;50.854;20.580;2023-01-26T06:25:11;0.60;99.90
21759;DHT22;11041;50.854;20.580;2023-01-26T06:27:37;0.70;99.90
21759;DHT22;11041;50.854;20.580;2023-01-26T06:30:08;0.70;99.90
21759;DHT22;11041;50.854;20.580;2023-01-26T06:32:35;0.70;99.90
21759;DHT22;11041;50.854;20.580;2023-01-26T06:35:02;0.80;99.90
21759;DHT22;11041;50.854;20.580;2023-01-26T06:37:33;0.80;99.90
21759;DHT22;11041;50.854;20.580;2023-01-26T06:40:00;0.80;99.90
21759;DHT22;11041;50.854;20.580;2023-01-26T06:42:27;0.80;99.90
21759;DHT22;11041;50.854;20.580;2023-01-26T06:44:53;0.90;99.90
21759;DHT22;11041;50.854;20.580;2023-01-26T06:47:22;0.90;99.90
21759;DHT22;11041;50.854;20.580;2023-01-26T06:49:48;0.90;99.90
21759;DHT22;11041;50.854;20.580;2023-01-26T06:52:25;0.90;99.90
21759;DHT22;11041;50.854;20.580;2023-01-26T06:54:59;0.90;99.90
21759;DHT22;11041;50.854;20.580;2023-01-26T06:57:28;0.80;99.90
21759;DHT22;11041;50.854;20.580;2023-01-26T06:59:54;0.60;99.90
21759;DHT22;11041;50.854;20.580;2023-01-26T07:02:22;0.70;99.90
21759;DHT22;11041;50.854;20.580;2023-01-26T07:04:49;0.80;99.90
21759;DHT22;11041;50.854;20.580;2023-01-26T07:07:16;0.80;99.90
21759;DHT22;11041;50.854;20.580;2023-01-26T07:09:43;0.80;99.90
21759;DHT22;11041;50.854;20.580;2023-01-26T07:12:09;0.80;99.90
21759;DHT22;11041;50.854;20.580;2023-01-26T07:14:36;0.80;99.90
21759;DHT22;11041;50.854;20.580;2023-01-26T07:17:02;0.80;99.90
21759;DHT22;11041;50.854;20.580;2023-01-26T07:19:29;0.80;99.90
21759;DHT22;11041;50.854;20.580;2023-01-26T07:21:58;0.80;99.90
21759;DHT22;11041;50.854;20.580;2023-01-26T07:24:26;0.80;99.90
21759;DHT22;11041;50.854;20.580;2023-01-26T07:26:53;0.80;99.90
21759;DHT22;11041;50.854;20.580;2023-01-26T07:29:20;0.80;99.90
21759;DHT22;11041;50.854;20.580;2023-01-26T07:31:47;0.70;99.90
21759;DHT22;11041;50.854;20.580;2023-01-26T07:34:14;0.60;99.90
21759;DHT22;11041;50.854;20.580;2023-01-26T07:36:40;0.70;99.90
21759;DHT22;11041;50.854;20.580;2023-01-26T07:39:07;0.80;99.90
21759;DHT22;11041;50.854;20.580;2023-01-26T07:41:33;0.70;99.90
21759;DHT22;11041;50.854;20.580;2023-01-26T07:44:00;0.70;99.90
21759;DHT22;11041;50.854;20.580;2023-01-26T07:46:27;0.70;99.90
21759;DHT22;11041;50.854;20.580;2023-01-26T07:48:53;0.60;99.90
21759;DHT22;11041;50.854;20.580;2023-01-26T07:51:20;0.60;99.90
21759;DHT22;11041;50.854;20.580;2023-01-26T07:53:46;0.50;99.90
21759;DHT22;11041;50.854;20.580;2023-01-26T07:56:16;0.60;99.90
21759;DHT22;11041;50.854;20.580;2023-01-26T07:58:50;0.50;99.90
21759;DHT22;11041;50.854;20.580;2023-01-26T08:01:18;0.50;99.90
21759;DHT22;11041;50.854;20.580;2023-01-26T08:03:49;0.60;99.90
21759;DHT22;11041;50.854;20.580;2023-01-26T08:06:17;0.60;99.90
21759;DHT22;11041;50.854;20.580;2023-01-26T08:08:45;0.70;99.90
21759;DHT22;11041;50.854;20.580;2023-01-26T08:11:18;0.70;99.90
21759;DHT22;11041;50.854;20.580;2023-01-26T08:13:47;0.80;99.90
21759;DHT22;11041;50.854;20.580;2023-01-26T08:16:14;0.80;99.90
21759;DHT22;11041;50.854;20.580;2023-01-26T08:18:42;0.80;99.90
21759;DHT22;11041;50.854;20.580;2023-01-26T08:21:12;0.80;99.90
21759;DHT22;11041;50.854;20.580;2023-01-26T08:23:41;0.70;99.90
21759;DHT22;11041;50.854;20.580;2023-01-26T08:26:10;0.70;99.90
21759;DHT22;11041;50.854;20.580;2023-01-26T08:28:39;0.70;99.90
21759;DHT22;11041;50.854;20.580;2023-01-26T08:31:08;0.70;99.90
21759;DHT22;11041;50.854;20.580;2023-01-26T08:33:38;0.60;99.90
21759;DHT22;11041;50.854;20.580;2023-01-26T08:36:08;0.60;99.90
21759;DHT22;11041;50.854;20.580;2023-01-26T08:38:37;0.60;99.90
21759;DHT22;11041;50.854;20.580;2023-01-26T08:41:04;0.70;99.90
21759;DHT22;11041;50.854;20.580;2023-01-26T08:43:31;0.70;99.90
21759;DHT22;11041;50.854;20.580;2023-01-26T08:45:58;0.70;99.90
21759;DHT22;11041;50.854;20.580;2023-01-26T08:48:25;0.70;99.90
21759;DHT22;11041;50.854;20.580;2023-01-26T08:50:56;0.60;99.90
21759;DHT22;11041;50.854;20.580;2023-01-26T08:53:24;0.60;99.90
21759;DHT22;11041;50.854;20.580;2023-01-26T08:55:51;0.50;99.90
21759;DHT22;11041;50.854;20.580;2023-01-26T08:58:18;0.60;99.90
21759;DHT22;11041;50.854;20.580;2023-01-26T09:00:45;0.50;99.90
21759;DHT22;11041;50.854;20.580;2023-01-26T09:03:12;0.30;99.90
21759;DHT22;11041;50.854;20.580;2023-01-26T09:05:39;0.40;99.90
21759;DHT22;11041;50.854;20.580;2023-01-26T09:08:08;0.40;99.90
21759;DHT22;11041;50.854;20.580;2023-01-26T09:10:37;0.50;99.90
21759;DHT22;11041;50.854;20.580;2023-01-26T09:13:05;0.60;99.90
21759;DHT22;11041;50.854;20.580;2023-01-26T09:15:31;0.60;99.90
21759;DHT22;11041;50.854;20.580;2023-01-26T09:17:58;0.60;99.90
21759;DHT22;11041;50.854;20.580;2023-01-26T09:20:24;0.70;99.90
21759;DHT22;11041;50.854;20.580;2023-01-26T09:22:51;0.70;99.90
21759;DHT22;11041;50.854;20.580;2023-01-26T10:33:19;0.40;99.90
21759;DHT22;11041;50.854;20.580;2023-01-26T10:36:13;0.50;99.90
21759;DHT22;11041;50.854;20.580;2023-01-26T10:38:43;0.30;99.90
21759;DHT22;11041;50.854;20.580;2023-01-26T10:44:34;0.40;99.90
21759;DHT22;11041;50.854;20.580;2023-01-26T10:46:43;0.50;99.90
21759;DHT22;11041;50.854;20.580;2023-01-26T10:51:45;0.60;99.90
21759;DHT22;11041;50.854;20.580;2023-01-26T10:54:30;0.60;99.90
21759;DHT22;11041;50.854;20.580;2023-01-26T10:57:43;0.70;99.90
21759;DHT22;11041;50.854;20.580;2023-01-26T11:00:06;0.70;99.90
21759;DHT22;11041;50.854;20.580;2023-01-26T11:02:55;0.80;99.90
21759;DHT22;11041;50.854;20.580;2023-01-26T11:05:29;0.80;99.90
21759;DHT22;11041;50.854;20.580;2023-01-26T11:07:56;0.80;99.90
21759;DHT22;11041;50.854;20.580;2023-01-26T11:10:31;0.80;99.90
21759;DHT22;11041;50.854;20.580;2023-01-26T11:16:37;0.80;99.90
21759;DHT22;11041;50.854;20.580;2023-01-26T11:19:22;0.80;99.90
21759;DHT22;11041;50.854;20.580;2023-01-26T11:21:57;0.80;99.90
21759;DHT22;11041;50.854;20.580;2023-01-26T11:24:33;0.90;99.90
21759;DHT22;11041;50.854;20.580;2023-01-26T11:33:16;0.80;99.90
21759;DHT22;11041;50.854;20.580;2023-01-26T11:35:56;0.80;99.90
21759;DHT22;11041;50.854;20.580;2023-01-26T11:39:17;0.80;99.90
21759;DHT22;11041;50.854;20.580;2023-01-26T11:45:26;0.70;99.90
21759;DHT22;11041;50.854;20.580;2023-01-26T11:59:35;0.50;99.90
21759;DHT22;11041;50.854;20.580;2023-01-26T12:02:33;0.50;99.90
21759;DHT22;11041;50.854;20.580;2023-01-26T12:07:55;0.40;99.90
21759;DHT22;11041;50.854;20.580;2023-01-26T12:10:44;0.50;99.90
21759;DHT22;11041;50.854;20.580;2023-01-26T12:16:29;0.50;99.90
21759;DHT22;11041;50.854;20.580;2023-01-26T12:19:27;0.60;99.90
21759;DHT22;11041;50.854;20.580;2023-01-26T12:22:45;0.50;99.90
21759;DHT22;11041;50.854;20.580;2023-01-26T12:25:37;0.60;99.90
21759;DHT22;11041;50.854;20.580;2023-01-26T12:28:30;0.70;99.90
21759;DHT22;11041;50.854;20.580;2023-01-26T12:31:15;0.70;99.90
21759;DHT22;11041;50.854;20.580;2023-01-26T12:33:43;0.80;99.90
21759;DHT22;11041;50.854;20.580;2023-01-26T12:39:33;0.80;99.90
21759;DHT22;11041;50.854;20.580;2023-01-26T12:45:26;0.80;99.90
21759;DHT22;11041;50.854;20.580;2023-01-26T12:48:49;0.80;99.90
21759;DHT22;11041;50.854;20.580;2023-01-26T12:51:34;0.80;99.90
21759;DHT22;11041;50.854;20.580;2023-01-26T12:54:33;0.60;99.90
21759;DHT22;11041;50.854;20.580;2023-01-26T12:57:09;0.60;99.90
21759;DHT22;11041;50.854;20.580;2023-01-26T12:59:40;0.50;99.90
21759;DHT22;11041;50.854;20.580;2023-01-26T13:02:51;0.60;99.90
21759;DHT22;11041;50.854;20.580;2023-01-26T13:05:55;0.50;99.90
21759;DHT22;11041;50.854;20.580;2023-01-26T13:11:05;0.60;99.90
21759;DHT22;11041;50.854;20.580;2023-01-26T13:13:52;0.60;99.90
21759;DHT22;11041;50.854;20.580;2023-01-26T13:19:01;0.60;99.90
21759;DHT22;11041;50.854;20.580;2023-01-26T13:21:42;0.50;99.90
21759;DHT22;11041;50.854;20.580;2023-01-26T13:26:44;0.60;99.90
21759;DHT22;11041;50.854;20.580;2023-01-26T13:29:31;0.60;99.90
21759;DHT22;11041;50.854;20.580;2023-01-26T13:34:42;0.70;99.90
21759;DHT22;11041;50.854;20.580;2023-01-26T13:37:55;0.70;99.90
21759;DHT22;11041;50.854;20.580;2023-01-26T13:40:35;0.70;99.90
21759;DHT22;11041;50.854;20.580;2023-01-26T13:54:04;0.70;99.90
21759;DHT22;11041;50.854;20.580;2023-01-26T13:56:41;0.80;99.90
21759;DHT22;11041;50.854;20.580;2023-01-26T13:59:23;0.80;99.90
21759;DHT22;11041;50.854;20.580;2023-01-26T14:01:53;-0.50;99.90
21759;DHT22;11041;50.854;20.580;2023-01-26T14:04:23;0.80;99.90
21759;DHT22;11041;50.854;20.580;2023-01-26T14:07:02;0.70;99.90
21759;DHT22;11041;50.854;20.580;2023-01-26T14:09:34;0.70;99.90
21759;DHT22;11041;50.854;20.580;2023-01-26T14:12:21;0.70;99.90
21759;DHT22;11041;50.854;20.580;2023-01-26T14:14:53;0.70;99.90
21759;DHT22;11041;50.854;20.580;2023-01-26T14:17:26;0.70;99.90
21759;DHT22;11041;50.854;20.580;2023-01-26T14:23:13;0.80;99.90
21759;DHT22;11041;50.854;20.580;2023-01-26T14:26:07;0.80;99.90
21759;DHT22;11041;50.854;20.580;2023-01-26T14:28:46;0.80;99.90
21759;DHT22;11041;50.854;20.580;2023-01-26T14:31:23;0.70;99.90
21759;DHT22;11041;50.854;20.580;2023-01-26T14:33:53;0.70;99.90
21759;DHT22;11041;50.854;20.580;2023-01-26T14:36:28;0.70;99.90
21759;DHT22;11041;50.854;20.580;2023-01-26T14:38:58;0.70;99.90
21759;DHT22;11041;50.854;20.580;2023-01-26T14:41:30;0.70;99.90
21759;DHT22;11041;50.854;20.580;2023-01-26T14:43:59;0.80;99.90
21759;DHT22;11041;50.854;20.580;2023-01-26T14:46:54;0.80;99.90
21759;DHT22;11041;50.854;20.580;2023-01-26T14:52:29;0.90;99.90
21759;DHT22;11041;50.854;20.580;2023-01-26T14:57:32;0.80;99.90
21759;DHT22;11041;50.854;20.580;2023-01-26T15:00:00;0.80;99.90
21759;DHT22;11041;50.854;20.580;2023-01-26T15:02:39;0.70;99.90
21759;DHT22;11041;50.854;20.580;2023-01-26T15:05:17;0.70;99.90
21759;DHT22;11041;50.854;20.580;2023-01-26T15:10:27;0.80;99.90
21759;DHT22;11041;50.854;20.580;2023-01-26T15:16:05;0.80;99.90
21759;DHT22;11041;50.854;20.580;2023-01-26T15:18:38;0.90;99.90
21759;DHT22;11041;50.854;20.580;2023-01-26T15:21:10;0.80;99.90
21759;DHT22;11041;50.854;20.580;2023-01-26T15:23:48;0.80;99.90
21759;DHT22;11041;50.854;20.580;2023-01-26T15:26:28;0.80;99.90
21759;DHT22;11041;50.854;20.580;2023-01-26T15:29:00;0.80;99.90
21759;DHT22;11041;50.854;20.580;2023-01-26T15:31:37;0.80;99.90
21759;DHT22;11041;50.854;20.580;2023-01-26T15:34:32;0.90;99.90
21759;DHT22;11041;50.854;20.580;2023-01-26T15:39:53;0.90;99.90
21759;DHT22;11041;50.854;20.580;2023-01-26T15:42:21;0.90;99.90
21759;DHT22;11041;50.854;20.580;2023-01-26T15:44:50;0.80;99.90
21759;DHT22;11041;50.854;20.580;2023-01-26T15:47:16;0.90;99.90
21759;DHT22;11041;50.854;20.580;2023-01-26T15:49:43;1.00;99.90
21759;DHT22;11041;50.854;20.580;2023-01-26T15:52:18;1.00;99.90
21759;DHT22;11041;50.854;20.580;2023-01-26T15:54:48;1.00;99.90
21759;DHT22;11041;50.854;20.580;2023-01-26T15:57:17;0.90;99.90
21759;DHT22;11041;50.854;20.580;2023-01-26T15:59:44;0.90;99.90
21759;DHT22;11041;50.854;20.580;2023-01-26T16:02:15;0.90;99.90
21759;DHT22;11041;50.854;20.580;2023-01-26T16:04:43;0.90;99.90
21759;DHT22;11041;50.854;20.580;2023-01-26T16:07:13;0.90;99.90
21759;DHT22;11041;50.854;20.580;2023-01-26T16:09:42;0.90;99.90
21759;DHT22;11041;50.854;20.580;2023-01-26T16:12:18;0.90;99.90
21759;DHT22;11041;50.854;20.580;2023-01-26T16:14:45;1.00;99.90
21759;DHT22;11041;50.854;20.580;2023-01-26T16:17:13;1.00;99.90
21759;DHT22;11041;50.854;20.580;2023-01-26T16:19:42;0.90;99.90
21759;DHT22;11041;50.854;20.580;2023-01-26T16:22:11;0.80;99.90
21759;DHT22;11041;50.854;20.580;2023-01-26T16:24:38;0.80;99.90
21759;DHT22;11041;50.854;20.580;2023-01-26T16:27:06;0.80;99.90
21759;DHT22;11041;50.854;20.580;2023-01-26T16:29:33;0.70;99.90
21759;DHT22;11041;50.854;20.580;2023-01-26T16:32:00;0.80;99.90
21759;DHT22;11041;50.854;20.580;2023-01-26T16:34:28;0.80;99.90
21759;DHT22;11041;50.854;20.580;2023-01-26T16:36:54;0.80;99.90
21759;DHT22;11041;50.854;20.580;2023-01-26T16:39:21;0.80;99.90
21759;DHT22;11041;50.854;20.580;2023-01-26T16:41:48;0.80;99.90
21759;DHT22;11041;50.854;20.580;2023-01-26T16:44:15;0.80;99.90
21759;DHT22;11041;50.854;20.580;2023-01-26T16:46:42;0.80;99.90
21759;DHT22;11041;50.854;20.580;2023-01-26T16:49:13;0.80;99.90
21759;DHT22;11041;50.854;20.580;2023-01-26T16:51:43;0.80;99.90
21759;DHT22;11041;50.854;20.580;2023-01-26T16:54:10;0.90;99.90
21759;DHT22;11041;50.854;20.580;2023-01-26T16:56:38;0.90;99.90
21759;DHT22;11041;50.854;20.580;2023-01-26T16:59:04;0.90;99.90
21759;DHT22;11041;50.854;20.580;2023-01-26T17:01:34;0.90;99.90
21759;DHT22;11041;50.854;20.580;2023-01-26T17:04:03;0.90;99.90
21759;DHT22;11041;50.854;20.580;2023-01-26T17:06:31;0.90;99.90
21759;DHT22;11041;50.854;20.580;2023-01-26T17:08:58;0.90;99.90
21759;DHT22;11041;50.854;20.580;2023-01-26T17:11:26;1.00;99.90
21759;DHT22;11041;50.854;20.580;2023-01-26T17:13:54;0.90;99.90
21759;DHT22;11041;50.854;20.580;2023-01-26T17:16:24;1.00;99.90
21759;DHT22;11041;50.854;20.580;2023-01-26T17:18:56;0.90;99.90
21759;DHT22;11041;50.854;20.580;2023-01-26T17:21:24;0.90;99.90
21759;DHT22;11041;50.854;20.580;2023-01-26T17:23:54;0.90;99.90
21759;DHT22;11041;50.854;20.580;2023-01-26T17:26:22;0.90;99.90
21759;DHT22;11041;50.854;20.580;2023-01-26T17:28:52;1.00;99.90
21759;DHT22;11041;50.854;20.580;2023-01-26T17:31:21;1.00;99.90
21759;DHT22;11041;50.854;20.580;2023-01-26T17:33:50;0.90;99.90
21759;DHT22;11041;50.854;20.580;2023-01-26T17:36:17;0.90;99.90
21759;DHT22;11041;50.854;20.580;2023-01-26T17:38:46;0.90;99.90
21759;DHT22;11041;50.854;20.580;2023-01-26T17:41:14;0.90;99.90
21759;DHT22;11041;50.854;20.580;2023-01-26T17:43:40;1.00;99.90
21759;DHT22;11041;50.854;20.580;2023-01-26T17:46:18;1.00;99.90
21759;DHT22;11041;50.854;20.580;2023-01-26T17:48:47;0.90;99.90
21759;DHT22;11041;50.854;20.580;2023-01-26T17:51:17;0.70;99.90
21759;DHT22;11041;50.854;20.580;2023-01-26T17:53:47;0.20;99.90
21759;DHT22;11041;50.854;20.580;2023-01-26T17:56:17;0.80;99.90
21759;DHT22;11041;50.854;20.580;2023-01-26T17:58:49;0.70;99.90
21759;DHT22;11041;50.854;20.580;2023-01-26T18:01:20;0.60;99.90
21759;DHT22;11041;50.854;20.580;2023-01-26T18:03:48;0.60;99.90
21759;DHT22;11041;50.854;20.580;2023-01-26T18:06:15;0.60;99.90
21759;DHT22;11041;50.854;20.580;2023-01-26T18:08:42;0.60;99.90
21759;DHT22;11041;50.854;20.580;2023-01-26T18:11:11;0.50;99.90
21759;DHT22;11041;50.854;20.580;2023-01-26T18:13:40;0.40;99.90
21759;DHT22;11041;50.854;20.580;2023-01-26T18:16:10;0.60;99.90
21759;DHT22;11041;50.854;20.580;2023-01-26T18:18:40;0.60;99.90
21759;DHT22;11041;50.854;20.580;2023-01-26T18:23:46;0.60;99.90
21759;DHT22;11041;50.854;20.580;2023-01-26T18:26:14;0.60;99.90
21759;DHT22;11041;50.854;20.580;2023-01-26T18:28:43;0.60;99.90
21759;DHT22;11041;50.854;20.580;2023-01-26T18:31:12;0.60;99.90
21759;DHT22;11041;50.854;20.580;2023-01-26T18:33:40;0.40;99.90
21759;DHT22;11041;50.854;20.580;2023-01-26T18:36:09;0.30;99.90
21759;DHT22;11041;50.854;20.580;2023-01-26T18:38:40;0.20;99.90
21759;DHT22;11041;50.854;20.580;2023-01-26T18:41:14;0.20;99.90